createdAt,value
2018-09-10T00:01:24.194Z,16.60
2018-09-10T00:03:52.511Z,16.60
2018-09-10T00:06:20.857Z,16.60
2018-09-10T00:08:49.978Z,16.60
2018-09-10T00:11:19.432Z,16.60
2018-09-10T00:13:47.745Z,16.60
2018-09-10T00:16:16.090Z,16.50
2018-09-10T00:18:44.409Z,16.50
2018-09-10T00:21:12.756Z,16.50
2018-09-10T00:23:41.074Z,16.40
2018-09-10T00:26:09.424Z,16.40
2018-09-10T00:28:37.762Z,16.30
2018-09-10T00:31:06.086Z,16.30
2018-09-10T00:33:34.423Z,16.30
2018-09-10T00:36:02.773Z,16.30
2018-09-10T00:38:31.097Z,16.20
2018-09-10T00:41:00.168Z,16.20
2018-09-10T00:43:28.487Z,16.20
2018-09-10T00:45:56.846Z,16.10
2018-09-10T00:48:25.174Z,16.10
2018-09-10T00:50:53.523Z,16.00
2018-09-10T00:53:21.846Z,16.00
2018-09-10T00:55:50.173Z,16.00
2018-09-10T00:58:18.507Z,15.90
2018-09-10T01:00:46.854Z,15.90
2018-09-10T01:03:15.215Z,15.80
2018-09-10T01:05:43.565Z,15.80
2018-09-10T01:08:11.883Z,15.80
2018-09-10T01:10:40.233Z,15.70
2018-09-10T01:13:08.604Z,15.70
2018-09-10T01:15:36.953Z,15.60
2018-09-10T01:18:05.262Z,15.60
2018-09-10T01:20:33.598Z,15.60
2018-09-10T01:23:01.930Z,15.50
2018-09-10T01:25:30.285Z,15.50
2018-09-10T01:27:58.661Z,15.50
2018-09-10T01:30:26.990Z,15.40
2018-09-10T01:32:55.329Z,15.40
2018-09-10T01:35:23.644Z,15.40
2018-09-10T01:37:51.970Z,15.30
2018-09-10T01:40:20.324Z,15.30
2018-09-10T01:42:48.658Z,15.30
2018-09-10T01:45:16.966Z,15.20
2018-09-10T01:47:45.293Z,15.20
2018-09-10T01:50:13.706Z,15.20
2018-09-10T01:52:42.053Z,15.10
2018-09-10T01:55:10.365Z,15.10
2018-09-10T01:57:38.697Z,15.00
2018-09-10T02:00:07.075Z,15.00
2018-09-10T02:02:35.416Z,15.00
2018-09-10T02:05:03.741Z,14.90
2018-09-10T02:07:32.083Z,14.90
2018-09-10T02:10:00.807Z,14.90
2018-09-10T02:12:29.146Z,14.90
2018-09-10T02:14:57.462Z,14.80
2018-09-10T02:17:26.127Z,14.80
2018-09-10T02:19:54.702Z,14.80
2018-09-10T02:22:23.033Z,14.80
2018-09-10T02:24:51.536Z,14.70
2018-09-10T02:27:19.896Z,14.70
2018-09-10T02:29:48.287Z,14.70
2018-09-10T02:32:16.646Z,14.60
2018-09-10T02:34:44.966Z,14.60
2018-09-10T02:37:13.320Z,14.60
2018-09-10T02:39:41.630Z,14.60
2018-09-10T02:42:09.954Z,14.50
2018-09-10T02:44:38.262Z,14.50
2018-09-10T02:47:06.593Z,14.50
2018-09-10T02:49:34.915Z,14.50
2018-09-10T02:52:03.304Z,14.50
2018-09-10T02:54:31.658Z,14.40
2018-09-10T02:57:00.110Z,14.50
2018-09-10T02:59:28.430Z,14.40
2018-09-10T03:01:59.794Z,14.40
2018-09-10T03:04:28.131Z,14.40
2018-09-10T03:06:56.482Z,14.40
2018-09-10T03:09:24.820Z,14.30
2018-09-10T03:11:53.159Z,14.30
2018-09-10T03:14:21.474Z,14.30
2018-09-10T03:16:49.819Z,14.30
2018-09-10T03:19:18.172Z,14.30
2018-09-10T03:21:46.509Z,14.30
2018-09-10T03:24:14.912Z,14.20
2018-09-10T03:26:43.210Z,14.20
2018-09-10T03:29:11.513Z,14.20
2018-09-10T03:31:39.854Z,14.20
2018-09-10T03:34:08.160Z,14.20
2018-09-10T03:36:36.501Z,14.20
2018-09-10T03:39:06.481Z,14.20
2018-09-10T03:41:34.813Z,14.20
2018-09-10T03:44:03.126Z,14.20
2018-09-10T03:46:31.534Z,14.20
2018-09-10T03:48:59.850Z,14.20
2018-09-10T03:51:28.203Z,14.20
2018-09-10T03:53:56.547Z,14.20
2018-09-10T03:56:24.866Z,14.30
2018-09-10T03:58:53.477Z,14.30
2018-09-10T04:01:21.790Z,14.30
2018-09-10T04:03:50.126Z,14.20
2018-09-10T04:06:18.446Z,14.20
2018-09-10T04:08:46.807Z,14.20
2018-09-10T04:11:15.128Z,14.20
2018-09-10T04:13:43.469Z,14.20
2018-09-10T04:16:11.810Z,14.10
2018-09-10T04:18:40.159Z,14.10
2018-09-10T04:21:08.486Z,14.10
2018-09-10T04:23:36.871Z,14.10
2018-09-10T04:26:05.340Z,14.00
2018-09-10T04:28:33.610Z,14.00
2018-09-10T04:31:01.917Z,14.00
2018-09-10T04:33:30.270Z,13.90
2018-09-10T04:35:58.646Z,13.90
2018-09-10T04:38:26.958Z,13.90
2018-09-10T04:40:55.269Z,13.80
2018-09-10T04:43:23.611Z,13.80
2018-09-10T04:45:51.950Z,13.80
2018-09-10T04:48:20.609Z,13.80
2018-09-10T04:50:48.969Z,13.70
2018-09-10T04:53:17.318Z,13.70
2018-09-10T04:55:45.637Z,13.70
2018-09-10T04:58:14.047Z,13.70
2018-09-10T05:00:42.314Z,13.70
2018-09-10T05:03:10.643Z,13.70
2018-09-10T05:05:38.989Z,13.60
2018-09-10T05:08:07.330Z,13.60
2018-09-10T05:10:35.684Z,13.60
2018-09-10T05:13:04.009Z,13.50
2018-09-10T05:15:32.327Z,13.50
2018-09-10T05:18:00.662Z,13.50
2018-09-10T05:20:28.985Z,13.50
2018-09-10T05:22:57.314Z,13.50
2018-09-10T05:25:25.642Z,13.50
2018-09-10T05:27:54.064Z,13.50
2018-09-10T05:30:22.366Z,13.50
2018-09-10T05:32:50.697Z,13.40
2018-09-10T05:35:19.015Z,13.50
2018-09-10T05:37:47.346Z,13.50
2018-09-10T05:40:15.658Z,13.50
2018-09-10T05:42:44.025Z,13.50
2018-09-10T05:45:13.080Z,13.50
2018-09-10T05:47:41.812Z,13.60
2018-09-10T05:50:11.047Z,13.60
2018-09-10T05:52:39.551Z,13.60
2018-09-10T05:55:07.933Z,13.60
2018-09-10T05:57:36.279Z,13.60
2018-09-10T06:00:05.050Z,13.70
2018-09-10T06:02:39.954Z,13.70
2018-09-10T06:05:08.267Z,13.80
2018-09-10T06:07:36.606Z,13.80
2018-09-10T06:10:05.078Z,13.80
2018-09-10T06:12:33.394Z,13.90
2018-09-10T06:15:01.771Z,13.90
2018-09-10T06:17:30.117Z,13.90
2018-09-10T06:19:58.450Z,13.90
2018-09-10T06:22:26.758Z,14.00
2018-09-10T06:24:55.090Z,14.00
2018-09-10T06:27:23.402Z,14.10
2018-09-10T06:29:51.741Z,14.20
2018-09-10T06:32:20.046Z,14.20
2018-09-10T06:34:48.410Z,14.30
2018-09-10T06:37:16.781Z,14.40
2018-09-10T06:39:45.094Z,14.50
2018-09-10T06:42:13.409Z,14.60
2018-09-10T06:44:41.742Z,14.70
2018-09-10T06:47:10.048Z,14.80
2018-09-10T06:49:42.821Z,14.90
2018-09-10T06:52:11.135Z,15.00
2018-09-10T06:54:39.476Z,15.20
2018-09-10T06:57:07.804Z,15.30
2018-09-10T06:59:36.142Z,15.50
2018-09-10T07:02:04.504Z,15.60
2018-09-10T07:04:32.838Z,15.70
2018-09-10T07:07:01.159Z,15.90
2018-09-10T07:09:29.522Z,16.00
2018-09-10T07:11:57.831Z,16.10
2018-09-10T07:14:26.207Z,16.30
2018-09-10T07:17:01.246Z,16.40
2018-09-10T07:19:29.589Z,16.50
2018-09-10T07:21:57.898Z,16.70
2018-09-10T07:24:26.247Z,16.80
2018-09-10T07:26:54.578Z,16.90
2018-09-10T07:29:22.910Z,17.10
2018-09-10T07:31:51.219Z,17.20
2018-09-10T07:34:19.609Z,17.30
2018-09-10T07:36:47.922Z,17.40
2018-09-10T07:39:16.247Z,17.50
2018-09-10T07:41:44.567Z,17.60
2018-09-10T07:44:12.961Z,17.70
2018-09-10T07:46:42.125Z,17.80
2018-09-10T07:49:10.449Z,17.90
2018-09-10T07:51:38.779Z,18.00
2018-09-10T07:54:07.404Z,18.10
2018-09-10T07:56:35.743Z,18.20
2018-09-10T07:59:04.095Z,18.30
2018-09-10T08:01:32.441Z,18.40
2018-09-10T08:04:00.812Z,18.50
2018-09-10T08:06:29.121Z,18.60
2018-09-10T08:08:57.511Z,18.70
2018-09-10T08:11:25.869Z,18.80
2018-09-10T08:13:54.230Z,18.80
2018-09-10T08:16:22.552Z,18.90
2018-09-10T08:18:50.911Z,19.00
2018-09-10T08:21:19.225Z,19.10
2018-09-10T08:23:47.566Z,19.10
2018-09-10T08:26:15.894Z,19.20
2018-09-10T08:28:44.269Z,19.30
2018-09-10T08:31:12.590Z,19.40
2018-09-10T08:33:40.918Z,19.50
2018-09-10T08:36:09.297Z,19.60
2018-09-10T08:38:37.614Z,19.70
2018-09-10T08:41:05.958Z,19.80
2018-09-10T08:43:34.282Z,19.90
2018-09-10T08:46:02.624Z,20.00
2018-09-10T08:48:30.959Z,20.10
2018-09-10T08:50:59.295Z,20.20
2018-09-10T08:53:27.626Z,20.20
2018-09-10T08:55:56.105Z,20.40
2018-09-10T08:58:24.330Z,20.40
2018-09-10T09:00:52.648Z,20.50
2018-09-10T09:03:20.959Z,20.60
2018-09-10T09:05:49.349Z,20.70
2018-09-10T09:08:17.726Z,20.80
2018-09-10T09:10:46.074Z,20.90
2018-09-10T09:13:14.396Z,21.00
2018-09-10T09:15:42.727Z,21.20
2018-09-10T09:18:11.073Z,21.20
2018-09-10T09:20:39.398Z,21.30
2018-09-10T09:23:07.786Z,21.40
2018-09-10T09:25:36.091Z,21.50
2018-09-10T09:28:04.414Z,21.60
2018-09-10T09:30:32.761Z,21.70
2018-09-10T09:33:01.107Z,21.80
2018-09-10T09:35:34.874Z,21.90
2018-09-10T09:38:08.617Z,21.90
2018-09-10T09:40:42.270Z,22.00
2018-09-10T09:43:16.001Z,22.10
2018-09-10T09:45:49.837Z,22.20
2018-09-10T09:50:52.823Z,22.30
2018-09-10T09:53:21.128Z,22.40
2018-09-10T09:55:49.462Z,22.40
2018-09-10T09:58:17.786Z,22.50
2018-09-10T10:00:53.426Z,22.60
2018-09-10T10:03:52.675Z,22.70
2018-09-10T10:06:21.231Z,22.70
2018-09-10T10:08:49.571Z,22.70
2018-09-10T10:11:18.050Z,22.80
2018-09-10T10:13:46.311Z,22.90
2018-09-10T10:16:14.686Z,23.00
2018-09-10T10:18:43.027Z,23.10
2018-09-10T10:21:11.410Z,23.20
2018-09-10T10:23:39.730Z,23.40
2018-09-10T10:26:08.074Z,23.50
2018-09-10T10:28:36.382Z,23.60
2018-09-10T10:31:04.728Z,23.70
2018-09-10T10:33:33.083Z,23.70
2018-09-10T10:36:01.463Z,23.80
2018-09-10T10:38:29.798Z,23.80
2018-09-10T10:40:58.155Z,23.80
2018-09-10T10:43:26.511Z,23.80
2018-09-10T10:45:54.849Z,23.80
2018-09-10T10:48:23.165Z,23.80
2018-09-10T10:50:51.507Z,23.80
2018-09-10T10:53:19.881Z,23.70
2018-09-10T10:55:48.336Z,23.70
2018-09-10T10:58:16.652Z,23.70
2018-09-10T11:00:44.998Z,23.70
2018-09-10T11:03:13.334Z,23.70
2018-09-10T11:05:41.674Z,23.70
2018-09-10T11:08:09.994Z,23.70
2018-09-10T11:10:38.390Z,23.60
2018-09-10T11:13:06.746Z,23.60
2018-09-10T11:15:35.256Z,23.60
2018-09-10T11:18:03.561Z,23.60
2018-09-10T11:20:32.036Z,23.60
2018-09-10T11:23:00.384Z,23.60
2018-09-10T11:25:35.077Z,23.60
2018-09-10T11:28:03.389Z,23.60
2018-09-10T11:30:31.762Z,23.60
2018-09-10T11:33:00.138Z,23.60
2018-09-10T11:35:28.539Z,23.60
2018-09-10T11:37:56.907Z,23.60
2018-09-10T11:40:25.278Z,23.60
2018-09-10T11:42:53.602Z,23.70
2018-09-10T11:45:21.958Z,23.70
2018-09-10T11:47:50.279Z,23.70
2018-09-10T11:50:18.602Z,23.80
2018-09-10T11:52:46.930Z,23.80
2018-09-10T11:55:15.259Z,23.90
2018-09-10T11:57:43.595Z,24.00
2018-09-10T12:00:11.913Z,24.00
2018-09-10T12:02:40.241Z,24.10
2018-09-10T12:05:08.561Z,24.10
2018-09-10T12:07:36.906Z,24.20
2018-09-10T12:10:05.458Z,24.20
2018-09-10T12:12:33.806Z,24.30
2018-09-10T12:15:02.124Z,24.30
2018-09-10T12:17:30.463Z,24.30
2018-09-10T12:19:58.789Z,24.40
2018-09-10T12:22:27.160Z,24.40
2018-09-10T12:24:55.479Z,24.50
2018-09-10T12:27:23.833Z,24.50
2018-09-10T12:29:52.153Z,24.60
2018-09-10T12:32:20.530Z,24.70
2018-09-10T12:34:48.838Z,24.70
2018-09-10T12:37:17.193Z,24.80
2018-09-10T12:39:45.648Z,24.80
2018-09-10T12:42:19.241Z,24.80
2018-09-10T12:44:47.551Z,24.80
2018-09-10T12:47:15.882Z,24.90
2018-09-10T12:49:44.219Z,24.90
2018-09-10T12:52:12.655Z,24.90
2018-09-10T12:54:40.982Z,24.90
2018-09-10T12:57:09.318Z,24.90
2018-09-10T12:59:37.658Z,25.00
2018-09-10T13:02:05.998Z,25.00
2018-09-10T13:04:34.302Z,25.00
2018-09-10T13:07:02.643Z,25.00
2018-09-10T13:09:31.070Z,25.10
2018-09-10T13:11:59.357Z,25.10
2018-09-10T13:14:27.656Z,25.10
2018-09-10T13:19:30.547Z,25.20
2018-09-10T13:21:58.883Z,25.20
2018-09-10T13:24:27.232Z,25.20
2018-09-10T13:26:56.067Z,25.20
2018-09-10T13:29:24.386Z,25.20
2018-09-10T13:31:52.731Z,25.30
2018-09-10T13:34:21.058Z,25.30
2018-09-10T13:36:49.498Z,25.30
2018-09-10T13:39:17.823Z,25.30
2018-09-10T13:41:46.153Z,25.30
2018-09-10T13:44:14.606Z,25.30
2018-09-10T13:46:42.929Z,25.30
2018-09-10T13:49:11.246Z,25.30
2018-09-10T13:51:39.591Z,25.30
2018-09-10T13:54:07.970Z,25.20
2018-09-10T13:56:36.285Z,25.20
2018-09-10T13:59:04.603Z,25.20
2018-09-10T14:01:32.946Z,25.10
2018-09-10T14:04:01.269Z,25.10
2018-09-10T14:06:29.610Z,25.00
2018-09-10T14:08:57.961Z,25.00
2018-09-10T14:11:26.291Z,24.90
2018-09-10T14:13:54.640Z,24.80
2018-09-10T14:16:22.978Z,24.80
2018-09-10T14:18:51.382Z,24.70
2018-09-10T14:21:19.739Z,24.60
2018-09-10T14:23:49.161Z,24.60
2018-09-10T14:26:17.509Z,24.50
2018-09-10T14:28:45.857Z,24.40
2018-09-10T14:31:14.184Z,24.40
2018-09-10T14:33:42.540Z,24.30
2018-09-10T14:36:10.854Z,24.20
2018-09-10T14:38:45.726Z,24.10
2018-09-10T14:41:14.044Z,24.10
2018-09-10T14:43:42.393Z,24.00
2018-09-10T14:46:10.921Z,24.00
2018-09-10T14:48:39.274Z,23.90
2018-09-10T14:51:07.587Z,23.90
2018-09-10T14:53:35.918Z,23.90
2018-09-10T14:56:04.241Z,23.90
2018-09-10T14:58:32.618Z,23.90
2018-09-10T15:01:00.933Z,23.90
2018-09-10T15:03:29.277Z,24.00
2018-09-10T15:05:57.687Z,23.90
2018-09-10T15:08:25.965Z,24.00
2018-09-10T15:10:54.297Z,24.00
2018-09-10T15:13:22.723Z,24.00
2018-09-10T15:15:51.060Z,24.00
2018-09-10T15:18:19.408Z,24.00
2018-09-10T15:20:47.735Z,24.00
2018-09-10T15:23:16.095Z,24.00
2018-09-10T15:25:44.414Z,24.00
2018-09-10T15:28:12.742Z,24.00
2018-09-10T15:30:41.054Z,24.00
2018-09-10T15:33:09.398Z,24.00
2018-09-10T15:35:37.717Z,24.00
2018-09-10T15:38:06.086Z,23.90
2018-09-10T15:40:34.429Z,23.90
2018-09-10T15:43:09.324Z,23.80
2018-09-10T15:45:37.647Z,23.80
2018-09-10T15:48:05.979Z,23.80
2018-09-10T15:50:34.303Z,23.70
2018-09-10T15:53:02.662Z,23.70
2018-09-10T15:55:30.990Z,23.60
2018-09-10T15:57:59.657Z,23.60
2018-09-10T16:00:27.981Z,23.50
2018-09-10T16:02:56.313Z,23.50
2018-09-10T16:07:59.222Z,23.50
2018-09-10T16:10:27.587Z,23.40
2018-09-10T16:12:55.947Z,23.40
2018-09-10T16:15:24.322Z,23.30
2018-09-10T16:17:52.661Z,23.30
2018-09-10T16:20:20.969Z,23.30
2018-09-10T16:22:49.302Z,23.20
2018-09-10T16:25:17.628Z,23.20
2018-09-10T16:27:45.971Z,23.20
2018-09-10T16:30:14.309Z,23.10
2018-09-10T16:32:42.629Z,23.10
2018-09-10T16:35:10.936Z,23.10
2018-09-10T16:37:39.275Z,23.00
2018-09-10T16:40:07.626Z,23.00
2018-09-10T16:42:35.937Z,22.90
2018-09-10T16:45:04.270Z,22.90
2018-09-10T16:47:33.650Z,22.90
2018-09-10T16:50:01.981Z,22.80
2018-09-10T16:52:30.305Z,22.80
2018-09-10T16:54:58.665Z,22.70
2018-09-10T16:57:27.005Z,22.70
2018-09-10T16:59:55.399Z,22.70
2018-09-10T17:02:23.719Z,22.70
2018-09-10T17:04:52.047Z,22.60
2018-09-10T17:07:20.367Z,22.60
2018-09-10T17:09:48.733Z,22.50
2018-09-10T17:12:17.073Z,22.50
2018-09-10T17:14:45.458Z,22.40
2018-09-10T17:17:13.782Z,22.40
2018-09-10T17:19:42.123Z,22.30
2018-09-10T17:22:10.453Z,22.30
2018-09-10T17:24:38.798Z,22.20
2018-09-10T17:27:07.131Z,22.20
2018-09-10T17:29:35.469Z,22.20
2018-09-10T17:32:03.852Z,22.10
2018-09-10T17:34:32.191Z,22.10
2018-09-10T17:37:00.509Z,22.10
2018-09-10T17:39:28.861Z,22.00
2018-09-10T17:41:57.183Z,22.00
2018-09-10T17:44:25.520Z,21.90
2018-09-10T17:46:53.852Z,21.90
2018-09-10T17:49:22.182Z,21.80
2018-09-10T17:51:50.595Z,21.80
2018-09-10T17:54:18.942Z,21.80
2018-09-10T17:56:47.275Z,21.70
2018-09-10T17:59:15.619Z,21.70
2018-09-10T18:01:43.935Z,21.60
2018-09-10T18:04:12.265Z,21.60
2018-09-10T18:06:40.575Z,21.50
2018-09-10T18:09:10.470Z,21.50
2018-09-10T18:11:38.862Z,21.50
2018-09-10T18:14:07.272Z,21.50
2018-09-10T18:16:35.582Z,21.40
2018-09-10T18:19:03.911Z,21.40
2018-09-10T18:21:33.282Z,21.30
2018-09-10T18:24:01.620Z,21.30
2018-09-10T18:26:29.942Z,21.30
2018-09-10T18:28:58.450Z,21.20
2018-09-10T18:31:26.770Z,21.20
2018-09-10T18:33:55.104Z,21.20
2018-09-10T18:36:23.414Z,21.10
2018-09-10T18:38:51.907Z,21.10
2018-09-10T18:41:20.617Z,21.10
2018-09-10T18:43:48.947Z,21.00
2018-09-10T18:46:17.258Z,21.00
2018-09-10T18:48:45.637Z,21.00
2018-09-10T18:51:13.956Z,21.00
2018-09-10T18:53:42.289Z,20.90
2018-09-10T18:56:10.618Z,20.90
2018-09-10T18:58:38.947Z,20.90
2018-09-10T19:01:07.457Z,20.80
2018-09-10T19:03:35.636Z,20.80
2018-09-10T19:06:03.979Z,20.80
2018-09-10T19:08:32.287Z,20.80
2018-09-10T19:11:00.640Z,20.70
2018-09-10T19:13:28.969Z,20.70
2018-09-10T19:15:57.338Z,20.70
2018-09-10T19:18:31.015Z,20.60
2018-09-10T19:20:59.359Z,20.60
2018-09-10T19:23:27.702Z,20.60
2018-09-10T19:25:56.043Z,20.50
2018-09-10T19:28:24.350Z,20.50
2018-09-10T19:30:52.689Z,20.50
2018-09-10T19:33:21.004Z,20.50
2018-09-10T19:35:49.437Z,20.40
2018-09-10T19:38:17.746Z,20.40
2018-09-10T19:40:52.730Z,20.40
2018-09-10T19:43:21.051Z,20.40
2018-09-10T19:45:49.386Z,20.40
2018-09-10T19:48:17.693Z,20.40
2018-09-10T19:50:46.081Z,20.30
2018-09-10T19:53:14.370Z,20.30
2018-09-10T19:55:43.105Z,20.30
2018-09-10T19:58:11.420Z,20.30
2018-09-10T20:00:39.750Z,20.30
2018-09-10T20:03:08.078Z,20.30
2018-09-10T20:05:36.422Z,20.20
2018-09-10T20:08:04.759Z,20.20
2018-09-10T20:10:33.118Z,20.20
2018-09-10T20:13:01.426Z,20.20
2018-09-10T20:15:29.770Z,20.20
2018-09-10T20:17:58.094Z,20.10
2018-09-10T20:20:26.791Z,20.10
2018-09-10T20:22:55.099Z,20.00
2018-09-10T20:25:23.421Z,20.00
2018-09-10T20:27:51.730Z,19.90
2018-09-10T20:30:20.054Z,19.90
2018-09-10T20:32:48.495Z,19.90
2018-09-10T20:35:16.834Z,19.80
2018-09-10T20:37:45.155Z,19.80
2018-09-10T20:40:13.491Z,19.80
2018-09-10T20:42:41.799Z,19.70
2018-09-10T20:45:10.190Z,19.70
2018-09-10T20:47:38.489Z,19.60
2018-09-10T20:50:06.882Z,19.60
2018-09-10T20:52:35.194Z,19.50
2018-09-10T20:55:03.527Z,19.50
2018-09-10T20:57:31.945Z,19.50
2018-09-10T21:00:00.274Z,19.50
2018-09-10T21:02:28.591Z,19.40
2018-09-10T21:04:56.940Z,19.40
2018-09-10T21:07:25.346Z,19.40
2018-09-10T21:09:53.895Z,19.30
2018-09-10T21:12:22.260Z,19.30
2018-09-10T21:14:50.590Z,19.30
2018-09-10T21:17:18.909Z,19.20
2018-09-10T21:19:47.226Z,19.20
2018-09-10T21:22:15.565Z,19.20
2018-09-10T21:24:43.885Z,19.20
2018-09-10T21:27:12.214Z,19.10
2018-09-10T21:29:40.530Z,19.10
2018-09-10T21:32:08.876Z,19.10
2018-09-10T21:34:37.205Z,19.10
2018-09-10T21:37:05.917Z,19.10
2018-09-10T21:39:34.241Z,19.10
2018-09-10T21:42:09.366Z,19.10
2018-09-10T21:44:37.691Z,19.00
2018-09-10T21:47:06.123Z,19.00
2018-09-10T21:49:34.452Z,19.00
2018-09-10T21:52:02.777Z,18.90
2018-09-10T21:54:31.089Z,18.90
2018-09-10T21:56:59.432Z,18.90
2018-09-10T21:59:27.990Z,18.90
2018-09-10T22:01:57.095Z,18.90
2018-09-10T22:04:25.407Z,18.80
2018-09-10T22:06:53.777Z,18.80
2018-09-10T22:09:22.121Z,18.80
2018-09-10T22:11:55.807Z,18.80
2018-09-10T22:14:24.310Z,18.80
2018-09-10T22:16:52.644Z,18.80
2018-09-10T22:19:20.972Z,18.80
2018-09-10T22:21:49.319Z,18.70
2018-09-10T22:24:17.818Z,18.80
2018-09-10T22:26:46.194Z,18.80
2018-09-10T22:29:14.733Z,18.80
2018-09-10T22:31:43.117Z,18.80
2018-09-10T22:34:11.428Z,18.80
2018-09-10T22:36:39.758Z,18.70
2018-09-10T22:39:11.453Z,18.80
2018-09-10T22:41:39.866Z,18.70
2018-09-10T22:44:08.340Z,18.70
2018-09-10T22:46:36.777Z,18.70
2018-09-10T22:49:05.789Z,18.70
2018-09-10T22:51:34.124Z,18.70
2018-09-10T22:54:02.447Z,18.70
2018-09-10T22:56:30.778Z,18.70
2018-09-10T22:59:05.808Z,18.70
2018-09-10T23:01:34.148Z,18.70
2018-09-10T23:04:02.466Z,18.70
2018-09-10T23:06:30.801Z,18.60
2018-09-10T23:08:59.123Z,18.70
2018-09-10T23:11:27.486Z,18.60
2018-09-10T23:13:55.794Z,18.60
2018-09-10T23:16:24.137Z,18.60
2018-09-10T23:18:52.466Z,18.60
2018-09-10T23:21:20.791Z,18.60
2018-09-10T23:23:49.102Z,18.60
2018-09-10T23:26:17.439Z,18.60
2018-09-10T23:28:45.741Z,18.50
2018-09-10T23:31:14.070Z,18.50
2018-09-10T23:33:42.380Z,18.50
2018-09-10T23:36:10.728Z,18.50
2018-09-10T23:38:39.045Z,18.50
2018-09-10T23:41:07.390Z,18.50
2018-09-10T23:43:35.722Z,18.50
2018-09-10T23:46:04.077Z,18.40
2018-09-10T23:48:32.391Z,18.40
2018-09-10T23:51:00.747Z,18.40
2018-09-10T23:53:29.062Z,18.40
2018-09-10T23:55:57.374Z,18.40
2018-09-10T23:58:25.709Z,18.40
